Time;durP1;ratioP1;P1;durP2;ratioP2;P2;SDS_P1;SDS_P2;PMS_P1;PMS_P2;Temp;Humidity;BMP_temperature;BMP_pressure;BME280_temperature;BME280_humidity;BME280_pressure;Samples;Min_cycle;Max_cycle;Signal;HPM_P1;HPM_P2
2022/11/26 00:00:46;;;;;;;15.10;5.25;;;5.30;99.90;;;;;;4997141;28;20034;-62
2022/11/26 00:03:13;;;;;;;17.77;5.60;;;;;;;;;;5014186;28;20447;-62
2022/11/26 00:05:41;;;;;;;21.20;5.90;;;5.30;99.90;;;;;;4996515;28;20038;-63
2022/11/26 00:08:14;;;;;;;21.13;6.28;;;;;;;;;;5014460;28;20121;-63
2022/11/26 00:10:40;;;;;;;20.15;6.32;;;;;;;;;;4997125;28;20062;-63
2022/11/26 00:13:17;;;;;;;20.35;5.72;;;5.50;99.90;;;;;;4997301;28;20072;-63
2022/11/26 00:15:43;;;;;;;19.05;5.65;;;;;;;;;;4997281;28;20396;-63
2022/11/26 00:18:11;;;;;;;16.63;5.43;;;;;;;;;;5014092;28;20069;-63
2022/11/26 00:20:37;;;;;;;14.85;5.53;;;;;;;;;;4996499;28;20046;-63
2022/11/26 00:23:03;;;;;;;16.52;5.97;;;5.30;99.90;;;;;;4997036;28;20553;-63
2022/11/26 00:25:38;;;;;;;17.50;5.55;;;;;;;;;;4996264;28;20026;-63
2022/11/26 00:28:14;;;;;;;21.03;5.90;;;;;;;;;;4996749;28;20435;-62
2022/11/26 00:30:40;;;;;;;18.63;5.95;;;5.40;99.90;;;;;;4996560;28;20285;-63
2022/11/26 00:33:06;;;;;;;15.50;6.05;;;;;;;;;;4996439;28;20483;-63
2022/11/26 00:35:32;;;;;;;18.83;5.65;;;;;;;;;;5013977;28;20077;-63
2022/11/26 00:37:58;;;;;;;18.20;6.28;;;;;;;;;;4996531;28;20037;-63
2022/11/26 00:40:30;;;;;;;23.10;6.18;;;5.40;99.90;;;;;;5000703;28;20042;-63
2022/11/26 00:42:57;;;;;;;13.68;5.22;;;;;;;;;;5000713;28;20038;-63
2022/11/26 00:45:27;;;;;;;15.65;5.38;;;;;;;;;;5013651;28;20058;-63
2022/11/26 00:47:54;;;;;;;17.08;5.50;;;;;;;;;;4996354;28;20468;-63
2022/11/26 00:50:21;;;;;;;16.73;6.15;;;5.40;99.90;;;;;;5013887;28;20042;-63
2022/11/26 00:52:50;;;;;;;16.35;5.35;;;5.30;99.90;;;;;;5013493;28;20048;-63
2022/11/26 00:55:25;;;;;;;14.98;5.15;;;5.30;99.90;;;;;;5013526;28;20550;-63
2022/11/26 00:57:51;;;;;;;15.50;5.22;;;;;;;;;;5013796;28;20041;-63
2022/11/26 01:00:19;;;;;;;21.67;6.03;;;5.30;99.90;;;;;;4996451;28;20412;-63
2022/11/26 01:02:46;;;;;;;20.38;5.18;;;;;;;;;;4996311;28;20053;-62
2022/11/26 01:05:12;;;;;;;19.80;5.20;;;;;;;;;;5013917;28;20125;-63
2022/11/26 01:07:39;;;;;;;13.30;4.50;;;;;;;;;;5013770;28;20034;-63
2022/11/26 01:10:05;;;;;;;11.70;5.53;;;;;;;;;;4995744;28;20033;-63
2022/11/26 01:12:31;;;;;;;17.27;5.85;;;;;;;;;;5013412;28;20057;-63
2022/11/26 01:14:57;;;;;;;11.02;4.97;;;;;;;;;;5013067;28;20435;-63
2022/11/26 01:17:23;;;;;;;10.95;4.93;;;5.00;99.90;;;;;;4996051;28;20041;-62
2022/11/26 01:19:48;;;;;;;9.23;5.20;;;4.80;99.90;;;;;;4996202;28;20403;-63
2022/11/26 01:22:19;;;;;;;10.65;4.60;;;;;;;;;;5013473;28;20255;-63
2022/11/26 01:24:45;;;;;;;8.52;4.43;;;;;;;;;;5013103;28;20447;-63
2022/11/26 01:27:11;;;;;;;7.88;4.38;;;4.40;99.90;;;;;;4979359;28;20033;-63
2022/11/26 01:29:37;;;;;;;7.43;4.68;;;4.40;99.90;;;;;;5013073;28;20096;-63
2022/11/26 01:32:03;;;;;;;5.53;3.92;;;;;;;;;;4995461;28;20034;-63
2022/11/26 01:34:29;;;;;;;6.75;4.05;;;;;;;;;;4995662;28;20041;-63
2022/11/26 01:36:55;;;;;;;7.70;4.00;;;;;;;;;;4995232;28;20053;-63
2022/11/26 01:39:22;;;;;;;6.03;3.65;;;4.30;99.90;;;;;;4995184;28;20408;-62
2022/11/26 01:42:36;;;;;;;6.07;3.88;;;4.50;99.90;;;;;;4995356;28;20088;-63
2022/11/26 01:45:08;;;;;;;6.95;4.55;;;4.30;99.90;;;;;;5012757;28;20402;-63
2022/11/26 01:47:34;;;;;;;5.50;4.03;;;;;;;;;;4995425;28;20459;-62
2022/11/26 01:50:28;;;;;;;6.72;4.15;;;4.40;99.90;;;;;;4988323;28;20042;-63
2022/11/26 01:53:11;;;;;;;7.00;3.92;;;4.40;99.90;;;;;;5012820;28;20042;-63
2022/11/26 01:55:45;;;;;;;11.65;3.95;;;;;;;;;;5012817;28;20065;-64
2022/11/26 01:58:13;;;;;;;10.60;3.75;;;;;;;;;;4995323;28;20038;-62
2022/11/26 02:00:39;;;;;;;4.00;3.20;;;;;;;;;;5012969;28;20045;-63
2022/11/26 02:03:06;;;;;;;8.10;3.25;;;4.30;99.90;;;;;;5012981;28;20392;-63
2022/11/26 02:05:38;;;;;;;18.20;4.50;;;4.40;99.90;;;;;;4995611;28;20528;-63
2022/11/26 02:08:05;;;;;;;3.70;2.55;;;4.30;99.90;;;;;;4995038;28;20026;-63
2022/11/26 02:10:30;;;;;;;7.18;4.05;;;4.50;99.90;;;;;;4995008;28;20441;-63
2022/11/26 02:19:29;;;;;;;6.22;3.55;;;;;;;;;;5053800;23;20059;-62
2022/11/26 02:22:11;;;;;;;9.18;3.90;;;;;;;;;;4922171;29;20588;-63
2022/11/26 02:24:48;;;;;;;7.70;3.55;;;;;;;;;;4941024;29;20512;-63
2022/11/26 02:27:14;;;;;;;11.68;3.50;;;;;;;;;;4909502;29;20383;-63
2022/11/26 02:29:40;;;;;;;7.90;3.50;;;;;;;;;;4939064;29;20126;-63
2022/11/26 02:32:31;;;;;;;7.47;3.88;;;4.00;99.90;;;;;;4921661;29;20106;-63
2022/11/26 02:35:01;;;;;;;9.75;3.47;;;;;;;;;;4921755;29;20048;-63
2022/11/26 02:38:04;;;;;;;7.75;3.08;;;4.00;99.90;;;;;;4921795;29;20452;-63
2022/11/26 02:40:30;;;;;;;11.63;3.65;;;;;;;;;;4917694;29;20384;-63
2022/11/26 02:42:56;;;;;;;6.57;3.30;;;4.20;99.90;;;;;;4921458;29;20099;-63
2022/11/26 02:45:25;;;;;;;6.50;3.28;;;4.20;99.90;;;;;;4938486;29;20043;-63
2022/11/26 02:47:54;;;;;;;10.07;3.53;;;4.30;99.90;;;;;;4921657;29;20199;-63
2022/11/26 02:50:57;;;;;;;8.00;3.72;;;4.20;99.90;;;;;;4921559;29;20043;-63
2022/11/26 02:53:26;;;;;;;4.53;3.10;;;3.90;99.90;;;;;;4880277;29;20052;-63
2022/11/26 02:55:58;;;;;;;7.65;3.10;;;;;;;;;;4936589;29;20070;-63
2022/11/26 02:58:24;;;;;;;10.82;4.25;;;;;;;;;;4938978;29;20050;-63
2022/11/26 03:00:50;;;;;;;7.32;3.45;;;;;;;;;;4905474;29;20418;-63
2022/11/26 03:03:28;;;;;;;7.65;3.22;;;4.10;99.90;;;;;;4921368;29;20063;-62
2022/11/26 03:06:03;;;;;;;8.30;3.90;;;4.30;99.90;;;;;;4921422;29;20047;-63
2022/11/26 03:08:30;;;;;;;10.00;3.05;;;;;;;;;;4938291;29;20038;-63
2022/11/26 03:10:56;;;;;;;8.32;3.65;;;;;;;;;;4939124;29;20071;-61
2022/11/26 03:13:22;;;;;;;8.38;4.60;;;;;;;;;;4938096;29;20032;-61
2022/11/26 03:15:48;;;;;;;11.20;4.50;;;4.30;99.90;;;;;;4920983;29;20048;-61
2022/11/26 03:18:13;;;;;;;8.00;4.25;;;4.30;99.90;;;;;;4937791;29;20047;-60
2022/11/26 03:20:39;;;;;;;12.70;4.78;;;;;;;;;;4920839;29;20558;-62
2022/11/26 03:23:05;;;;;;;11.73;5.43;;;;;;;;;;4920713;29;20039;-61
2022/11/26 03:25:32;;;;;;;15.77;4.75;;;4.20;99.90;;;;;;4937638;29;20046;-61
2022/11/26 03:27:58;;;;;;;15.43;5.80;;;;;;;;;;4937796;29;20048;-61
2022/11/26 03:30:24;;;;;;;10.15;4.68;;;4.30;99.90;;;;;;4904727;29;20040;-61
2022/11/26 03:32:50;;;;;;;11.20;5.20;;;;;;;;;;4920065;29;20127;-60
2022/11/26 03:35:16;;;;;;;13.50;4.97;;;;;;;;;;4919946;29;20044;-60
2022/11/26 03:37:42;;;;;;;10.02;4.38;;;;;;;;;;4937767;29;20048;-60
2022/11/26 03:40:09;;;;;;;16.75;6.07;;;4.20;99.90;;;;;;4937451;29;20043;-61
2022/11/26 03:42:35;;;;;;;13.57;5.13;;;4.10;99.90;;;;;;4920630;29;20076;-61
2022/11/26 03:47:37;;;;;;;13.07;6.18;;;;;;;;;;5125307;23;20073;-62
2022/11/26 03:50:04;;;;;;;11.02;5.47;;;4.10;99.90;;;;;;4994723;28;20593;-61
2022/11/26 03:52:30;;;;;;;14.23;5.72;;;4.00;99.90;;;;;;4958611;28;20527;-62
2022/11/26 03:54:55;;;;;;;12.50;5.50;;;4.20;99.90;;;;;;4956889;28;20097;-61
2022/11/26 03:57:21;;;;;;;11.20;5.43;;;;;;;;;;4943094;28;20031;-61
2022/11/26 03:59:47;;;;;;;12.45;5.68;;;4.20;99.90;;;;;;4939249;29;20099;-62
2022/11/26 04:02:13;;;;;;;11.25;5.10;;;;;;;;;;4923467;29;20035;-61
2022/11/26 04:04:39;;;;;;;13.80;5.25;;;;;;;;;;4956678;28;20047;-62
2022/11/26 04:07:05;;;;;;;14.77;6.00;;;4.30;99.90;;;;;;4967329;28;20050;-61
2022/11/26 04:09:30;;;;;;;15.63;6.03;;;4.20;99.90;;;;;;4961927;28;20400;-61
2022/11/26 04:11:56;;;;;;;15.02;5.47;;;4.20;99.90;;;;;;4966393;28;20512;-61
2022/11/26 04:14:22;;;;;;;15.80;6.78;;;;;;;;;;4940405;28;20425;-61
2022/11/26 04:16:48;;;;;;;16.42;6.97;;;4.40;99.90;;;;;;4950742;28;20043;-61
2022/11/26 04:19:14;;;;;;;23.08;7.72;;;;;;;;;;4955950;29;20073;-62
2022/11/26 04:21:40;;;;;;;19.77;8.40;;;;;;;;;;4961452;28;20038;-61
2022/11/26 04:24:06;;;;;;;18.70;7.88;;;4.60;99.90;;;;;;4964072;28;20043;-61
2022/11/26 04:26:32;;;;;;;28.77;7.80;;;;;;;;;;4938602;29;20035;-61
2022/11/26 04:28:58;;;;;;;25.98;8.27;;;;;;;;;;4947890;28;20101;-61
2022/11/26 04:31:24;;;;;;;25.90;8.80;;;4.80;99.90;;;;;;4942542;29;20122;-62
2022/11/26 04:33:50;;;;;;;23.27;9.52;;;;;;;;;;4938512;29;20089;-62
2022/11/26 04:36:16;;;;;;;21.80;6.78;;;;;;;;;;4955650;28;20043;-61
2022/11/26 04:38:41;;;;;;;19.63;8.18;;;4.60;99.90;;;;;;4922653;29;20043;-61
2022/11/26 04:41:07;;;;;;;16.98;6.63;;;;;;;;;;4938611;29;20410;-63
2022/11/26 04:43:34;;;;;;;17.83;7.80;;;;;;;;;;4955257;29;20035;-62
2022/11/26 04:45:59;;;;;;;16.95;7.65;;;4.50;99.90;;;;;;4937893;29;20058;-62
2022/11/26 04:48:25;;;;;;;29.33;8.30;;;;;;;;;;4938504;28;20040;-62
2022/11/26 04:50:51;;;;;;;26.27;8.73;;;;;;;;;;4955586;28;20051;-63
2022/11/26 04:53:20;;;;;;;21.67;8.27;;;4.60;99.90;;;;;;4951629;28;20054;-61
2022/11/26 04:55:48;;;;;;;19.42;8.18;;;4.80;99.90;;;;;;4968407;28;20089;-61
2022/11/26 04:58:15;;;;;;;23.88;8.43;;;4.70;99.90;;;;;;4938271;29;20404;-61
2022/11/26 05:00:41;;;;;;;23.08;10.32;;;4.90;99.90;;;;;;4951817;28;20432;-61
2022/11/26 05:03:19;;;;;;;21.73;9.23;;;4.50;99.90;;;;;;4938163;29;20039;-60
2022/11/26 05:05:45;;;;;;;25.67;9.23;;;;;;;;;;4951515;28;20061;-61
2022/11/26 05:08:11;;;;;;;25.27;9.05;;;;;;;;;;4937880;29;20046;-61
2022/11/26 05:10:37;;;;;;;21.80;8.80;;;4.90;99.90;;;;;;4950012;28;20117;-61
2022/11/26 05:13:03;;;;;;;23.33;8.93;;;;;;;;;;4943487;28;20413;-61
2022/11/26 05:15:28;;;;;;;22.45;9.30;;;4.90;99.90;;;;;;4964050;28;20081;-61
2022/11/26 05:17:54;;;;;;;24.77;9.20;;;4.70;99.90;;;;;;4957330;28;20039;-61
2022/11/26 05:20:20;;;;;;;23.60;9.45;;;4.70;99.90;;;;;;4957450;28;20061;-62
2022/11/26 05:22:46;;;;;;;22.40;10.10;;;;;;;;;;4922918;29;20126;-62
2022/11/26 05:25:11;;;;;;;25.30;10.25;;;4.90;99.90;;;;;;4929196;29;20138;-61
2022/11/26 05:27:37;;;;;;;21.40;9.27;;;4.80;99.90;;;;;;4954280;29;20082;-62
2022/11/26 05:30:04;;;;;;;25.60;10.30;;;4.80;99.90;;;;;;4961173;28;20039;-63
2022/11/26 05:32:30;;;;;;;28.15;9.10;;;;;;;;;;4948917;29;20043;-63
2022/11/26 05:34:56;;;;;;;26.58;11.27;;;;;;;;;;4953445;28;20035;-63
2022/11/26 05:37:21;;;;;;;24.75;9.82;;;4.80;99.90;;;;;;4937547;29;20561;-61
2022/11/26 05:39:47;;;;;;;33.67;9.75;;;4.80;99.90;;;;;;4951643;29;20123;-61
2022/11/26 05:42:14;;;;;;;31.17;11.30;;;4.80;99.90;;;;;;4957623;28;20067;-62
2022/11/26 05:44:39;;;;;;;25.83;10.00;;;4.90;99.90;;;;;;4933763;29;20451;-61
2022/11/26 05:47:05;;;;;;;32.50;10.60;;;4.80;99.90;;;;;;4950808;29;20062;-62
2022/11/26 05:49:31;;;;;;;29.73;10.45;;;4.90;99.90;;;;;;4954645;29;20422;-62
2022/11/26 05:51:56;;;;;;;25.42;10.73;;;4.80;99.90;;;;;;4952478;29;20402;-60
2022/11/26 05:54:22;;;;;;;25.48;10.15;;;;;;;;;;4948793;29;20044;-61
2022/11/26 05:56:48;;;;;;;29.85;10.25;;;5.00;99.90;;;;;;4936339;29;20086;-62
2022/11/26 05:59:14;;;;;;;26.85;9.85;;;;;;;;;;4934037;28;20485;-62
2022/11/26 06:01:39;;;;;;;22.80;10.20;;;5.00;99.90;;;;;;4952174;29;20047;-61
2022/11/26 06:04:05;;;;;;;24.58;10.07;;;5.00;99.90;;;;;;4954254;28;20524;-61
2022/11/26 06:06:30;;;;;;;24.73;10.00;;;5.10;99.90;;;;;;4970987;28;20050;-63
2022/11/26 06:08:56;;;;;;;26.52;10.27;;;5.10;99.90;;;;;;4951174;28;20036;-61
2022/11/26 06:11:22;;;;;;;28.15;10.90;;;5.10;99.90;;;;;;4943957;29;20114;-61
2022/11/26 06:13:48;;;;;;;23.15;11.20;;;;;;;;;;4939907;29;20050;-61
2022/11/26 06:16:13;;;;;;;28.27;10.57;;;5.00;99.90;;;;;;4968795;28;20047;-61
2022/11/26 06:18:39;;;;;;;31.38;11.00;;;5.10;99.90;;;;;;4958556;28;20065;-62
2022/11/26 06:21:06;;;;;;;21.77;10.02;;;5.10;99.90;;;;;;4954568;28;20045;-61
2022/11/26 06:23:33;;;;;;;29.50;10.63;;;5.10;99.90;;;;;;4939190;28;20053;-63
2022/11/26 06:25:59;;;;;;;29.08;11.60;;;5.10;99.90;;;;;;4941294;29;20086;-63
2022/11/26 06:28:24;;;;;;;23.75;11.68;;;5.20;99.90;;;;;;4940062;29;20390;-65
2022/11/26 06:30:50;;;;;;;27.65;10.82;;;5.20;99.90;;;;;;4955118;29;20047;-63
2022/11/26 06:33:16;;;;;;;23.15;11.10;;;;;;;;;;4957367;29;20551;-62
2022/11/26 06:35:42;;;;;;;32.40;13.25;;;5.20;99.90;;;;;;4949593;28;20039;-62
2022/11/26 06:38:07;;;;;;;33.95;12.70;;;5.30;99.90;;;;;;4946253;29;20047;-63
2022/11/26 06:40:33;;;;;;;27.40;12.10;;;5.30;99.90;;;;;;4940111;28;20083;-62
2022/11/26 06:42:59;;;;;;;33.05;13.48;;;;;;;;;;4942679;29;20127;-64
2022/11/26 06:45:25;;;;;;;33.65;13.75;;;;;;;;;;4923324;29;20089;-62
2022/11/26 06:47:51;;;;;;;33.85;13.32;;;5.20;99.90;;;;;;4949718;29;20055;-62
2022/11/26 06:50:19;;;;;;;31.17;11.85;;;5.20;99.90;;;;;;4956185;29;20039;-62
2022/11/26 06:52:45;;;;;;;29.67;12.90;;;5.20;99.90;;;;;;4957579;29;20569;-62
2022/11/26 06:55:11;;;;;;;33.08;13.00;;;5.30;99.90;;;;;;4947326;29;20032;-62
2022/11/26 06:57:36;;;;;;;27.48;12.43;;;5.20;99.90;;;;;;4942911;28;20039;-62
2022/11/26 07:00:04;;;;;;;29.23;13.30;;;5.30;99.90;;;;;;4957707;28;20039;-62
2022/11/26 07:02:30;;;;;;;27.65;12.10;;;5.30;99.90;;;;;;4934894;29;20054;-62
2022/11/26 07:04:55;;;;;;;31.67;13.70;;;5.30;99.90;;;;;;4957329;28;20046;-62
2022/11/26 07:07:21;;;;;;;29.35;11.60;;;5.40;99.90;;;;;;4957002;28;20035;-62
2022/11/26 07:09:46;;;;;;;32.13;13.50;;;5.20;99.90;;;;;;4956024;28;20035;-62
2022/11/26 07:12:12;;;;;;;28.80;13.15;;;5.30;99.90;;;;;;4932138;29;20035;-62
2022/11/26 07:14:38;;;;;;;27.55;13.07;;;;;;;;;;4935916;29;20118;-62
2022/11/26 07:17:03;;;;;;;42.38;12.95;;;5.10;99.90;;;;;;4939842;29;20054;-61
2022/11/26 07:19:29;;;;;;;25.55;11.60;;;5.40;99.90;;;;;;4939945;29;20070;-61
2022/11/26 07:21:54;;;;;;;28.13;12.55;;;5.40;99.90;;;;;;4956867;29;20498;-61
2022/11/26 07:24:20;;;;;;;29.92;11.80;;;5.40;99.90;;;;;;4956892;29;20130;-61
2022/11/26 07:26:46;;;;;;;33.92;12.52;;;;;;;;;;4936279;29;20052;-60
2022/11/26 07:29:11;;;;;;;31.75;12.15;;;5.30;99.90;;;;;;4956924;29;20046;-60
2022/11/26 07:31:37;;;;;;;25.30;12.10;;;;;;;;;;4939679;29;20514;-60
2022/11/26 07:34:03;;;;;;;24.83;11.90;;;5.30;99.90;;;;;;4956660;29;20039;-60
2022/11/26 07:36:29;;;;;;;29.33;13.55;;;5.40;99.90;;;;;;4956760;28;20035;-60
2022/11/26 07:38:57;;;;;;;30.90;13.10;;;5.40;99.90;;;;;;4936859;29;20126;-61
2022/11/26 07:41:23;;;;;;;32.50;12.57;;;5.40;99.90;;;;;;4939802;29;20061;-60
2022/11/26 07:43:49;;;;;;;23.27;11.30;;;5.40;99.90;;;;;;4956642;29;20051;-60
2022/11/26 07:46:17;;;;;;;33.85;12.80;;;5.30;99.90;;;;;;4939053;29;20065;-61
2022/11/26 07:48:43;;;;;;;26.60;11.35;;;;;;;;;;4956218;29;20055;-60
2022/11/26 07:51:18;;;;;;;23.90;11.95;;;5.50;99.90;;;;;;4955932;29;20039;-60
2022/11/26 07:53:44;;;;;;;26.38;10.68;;;5.50;99.90;;;;;;4939005;29;20131;-60
2022/11/26 07:56:10;;;;;;;25.30;11.77;;;;;;;;;;4956156;29;20046;-63
2022/11/26 07:58:36;;;;;;;23.25;9.95;;;;;;;;;;4952885;29;20110;-63
2022/11/26 08:01:09;;;;;;;27.55;10.88;;;;;;;;;;4954442;28;20045;-62
2022/11/26 08:03:39;;;;;;;21.63;10.30;;;;;;;;;;4964329;28;20558;-63
2022/11/26 08:06:09;;;;;;;30.23;11.45;;;6.00;99.90;;;;;;4944814;28;20038;-61
2022/11/26 08:08:35;;;;;;;31.30;10.65;;;6.00;99.90;;;;;;4960730;28;20091;-61
2022/11/26 08:11:02;;;;;;;25.48;9.75;;;;;;;;;;4939493;28;20044;-62
2022/11/26 08:13:27;;;;;;;21.77;10.05;;;6.00;99.90;;;;;;4948324;28;20043;-62
2022/11/26 08:15:53;;;;;;;21.85;9.00;;;6.10;99.90;;;;;;4950475;28;20401;-62
2022/11/26 08:18:18;;;;;;;26.77;9.00;;;6.20;99.90;;;;;;4938052;29;20043;-62
2022/11/26 08:20:44;;;;;;;21.73;9.35;;;6.30;99.90;;;;;;4954475;28;20043;-63
2022/11/26 08:23:09;;;;;;;20.42;9.05;;;6.30;99.90;;;;;;4937350;29;20090;-63
2022/11/26 08:25:35;;;;;;;24.05;9.27;;;6.30;99.90;;;;;;4955339;28;20509;-63
2022/11/26 08:28:00;;;;;;;16.58;8.95;;;6.30;99.90;;;;;;4952485;29;20523;-63
2022/11/26 08:30:26;;;;;;;24.27;9.02;;;6.40;99.90;;;;;;4955112;29;20565;-62
2022/11/26 08:32:52;;;;;;;24.65;9.73;;;6.50;99.90;;;;;;4955451;29;20038;-62
2022/11/26 08:35:17;;;;;;;20.08;9.07;;;6.40;99.90;;;;;;4952341;28;20398;-62
2022/11/26 08:37:43;;;;;;;19.95;9.57;;;;;;;;;;4954496;29;20031;-62
2022/11/26 08:40:09;;;;;;;22.63;9.27;;;6.30;99.90;;;;;;4952958;29;20126;-62
2022/11/26 08:42:35;;;;;;;24.63;9.38;;;6.60;99.90;;;;;;4954579;29;20042;-62
2022/11/26 08:45:00;;;;;;;18.65;8.48;;;6.60;99.90;;;;;;4937796;29;20134;-62
2022/11/26 08:47:27;;;;;;;21.80;9.25;;;6.70;99.90;;;;;;4954944;29;20131;-63
2022/11/26 08:49:53;;;;;;;22.05;8.93;;;6.80;99.90;;;;;;4937508;29;20473;-63
2022/11/26 08:52:18;;;;;;;35.00;11.68;;;7.00;99.90;;;;;;4954817;29;20038;-62
2022/11/26 08:54:44;;;;;;;20.02;9.55;;;7.00;99.90;;;;;;4937578;28;20498;-62
2022/11/26 08:57:09;;;;;;;23.95;9.32;;;7.00;99.90;;;;;;4937697;29;20051;-63
2022/11/26 08:59:35;;;;;;;21.00;9.15;;;7.10;99.90;;;;;;4937289;29;20126;-63
2022/11/26 09:02:00;;;;;;;19.30;8.98;;;7.30;99.90;;;;;;4937616;29;20067;-63
2022/11/26 09:04:26;;;;;;;27.08;8.82;;;7.30;99.90;;;;;;4954598;29;20074;-63
2022/11/26 09:06:51;;;;;;;28.25;9.60;;;7.40;99.90;;;;;;4937410;29;20047;-63
2022/11/26 09:09:17;;;;;;;21.65;9.35;;;7.50;99.90;;;;;;4954498;28;20094;-63
2022/11/26 09:11:53;;;;;;;26.17;9.15;;;7.50;99.90;;;;;;4954807;29;20039;-63
2022/11/26 09:14:20;;;;;;;20.90;9.13;;;;;;;;;;4937784;29;20051;-63
2022/11/26 09:16:46;;;;;;;17.77;8.85;;;;;;;;;;4952167;28;20074;-63
2022/11/26 09:19:13;;;;;;;24.83;9.25;;;;;;;;;;4938627;29;20047;-65
2022/11/26 09:21:39;;;;;;;30.98;10.13;;;;;;;;;;4936359;29;20098;-64
2022/11/26 09:24:05;;;;;;;24.92;9.25;;;7.60;99.90;;;;;;4938887;29;20046;-65
2022/11/26 09:26:32;;;;;;;21.30;9.23;;;7.70;99.90;;;;;;4954095;28;20529;-65
2022/11/26 09:28:58;;;;;;;26.30;9.27;;;;;;;;;;4937568;29;20035;-64
2022/11/26 09:31:24;;;;;;;20.52;9.35;;;7.80;99.90;;;;;;4936574;29;20035;-63
2022/11/26 09:33:49;;;;;;;27.92;10.18;;;7.80;99.90;;;;;;4936258;29;20054;-64
2022/11/26 09:36:16;;;;;;;27.17;9.30;;;7.80;99.90;;;;;;4949109;28;20039;-65
2022/11/26 09:38:42;;;;;;;24.42;9.63;;;8.20;99.90;;;;;;4949925;29;20106;-64
2022/11/26 09:41:32;;;;;;;27.23;9.25;;;8.00;99.90;;;;;;4927250;29;20170;-66
2022/11/26 09:44:07;;;;;;;28.02;11.70;;;;;;;;;;4930004;29;20039;-62
2022/11/26 09:47:05;;;;;;;;;;;8.00;99.90;;;;;;4934216;29;20047;-64
2022/11/26 09:49:36;;;;;;;24.50;9.80;;;7.90;99.90;;;;;;4900301;29;19976;-62
2022/11/26 09:52:04;;;;;;;27.67;10.70;;;8.00;99.90;;;;;;4945155;29;20039;-62
2022/11/26 09:54:30;;;;;;;26.88;10.70;;;8.10;99.90;;;;;;4952427;29;20039;-61
2022/11/26 09:57:13;;;;;;;24.48;9.60;;;8.10;99.90;;;;;;4950179;28;20066;-64
2022/11/26 09:59:40;;;;;;;20.20;10.50;;;8.10;99.90;;;;;;4952079;29;20087;-63
2022/11/26 10:02:11;;;;;;;27.67;11.50;;;;;;;;;;4939300;28;20035;-62
2022/11/26 10:04:38;;;;;;;22.98;11.00;;;8.00;99.90;;;;;;4930152;29;20081;-62
2022/11/26 10:07:22;;;;;;;23.55;11.18;;;;;;;;;;4947627;28;20397;-62
2022/11/26 10:10:15;;;;;;;33.07;11.90;;;7.80;99.90;;;;;;4942075;28;20070;-63
2022/11/26 10:13:13;;;;;;;29.58;11.10;;;7.90;99.90;;;;;;4945251;29;20520;-64
2022/11/26 10:16:17;;;;;;;31.73;12.43;;;7.70;99.90;;;;;;4949076;28;20582;-63
2022/11/26 10:18:44;;;;;;;27.20;11.65;;;7.50;99.90;;;;;;4918011;29;20051;-62
2022/11/26 10:21:38;;;;;;;28.02;11.90;;;7.80;99.90;;;;;;4950058;29;20098;-64
2022/11/26 10:24:30;;;;;;;33.75;13.50;;;7.60;99.90;;;;;;4936824;29;20406;-64
2022/11/26 10:27:00;;;;;;;27.88;12.20;;;7.60;99.90;;;;;;4945269;29;20039;-62
2022/11/26 10:29:33;;;;;;;33.45;13.38;;;7.60;99.90;;;;;;4935118;29;20039;-60
2022/11/26 10:32:08;;;;;;;29.83;11.80;;;7.60;99.90;;;;;;4954129;29;20058;-65
2022/11/26 10:34:41;;;;;;;32.65;14.95;;;7.60;99.90;;;;;;4924449;29;20047;-65
2022/11/26 10:37:07;;;;;;;26.85;13.38;;;7.70;99.90;;;;;;4941475;29;20478;-62
2022/11/26 10:39:32;;;;;;;27.35;12.88;;;7.70;99.90;;;;;;4948532;29;20119;-64
2022/11/26 10:42:03;;;;;;;36.72;13.07;;;7.80;99.90;;;;;;4942882;28;20509;-63
2022/11/26 10:44:41;;;;;;;31.00;12.32;;;7.70;99.90;;;;;;4934962;29;20039;-63
2022/11/26 10:47:18;;;;;;;30.13;12.52;;;;;;;;;;4948017;29;20410;-63
2022/11/26 10:49:44;;;;;;;30.20;12.63;;;7.70;99.90;;;;;;4935238;29;20486;-61
2022/11/26 10:52:16;;;;;;;29.58;12.85;;;7.80;99.90;;;;;;4941955;29;20039;-63
2022/11/26 10:54:44;;;;;;;36.15;13.45;;;7.80;99.90;;;;;;4934151;29;20059;-63
2022/11/26 10:57:17;;;;;;;33.95;13.02;;;7.80;99.90;;;;;;4927723;29;20050;-62
2022/11/26 10:59:42;;;;;;;30.55;11.85;;;7.80;99.90;;;;;;4912889;29;20486;-64
2022/11/26 11:02:22;;;;;;;28.05;13.07;;;;;;;;;;4950812;29;20106;-63
2022/11/26 11:04:51;;;;;;;27.23;12.13;;;7.90;99.90;;;;;;4954239;28;20409;-62
2022/11/26 11:07:37;;;;;;;35.15;13.55;;;8.00;99.90;;;;;;4950522;29;20090;-63
2022/11/26 11:10:04;;;;;;;31.80;11.82;;;7.90;99.90;;;;;;4933150;29;20044;-62
2022/11/26 11:12:30;;;;;;;23.85;12.35;;;8.00;99.90;;;;;;4933296;29;20043;-63
2022/11/26 11:15:17;;;;;;;35.17;12.52;;;8.10;99.90;;;;;;4953201;29;20054;-65
2022/11/26 11:17:43;;;;;;;29.58;12.68;;;;;;;;;;4945619;28;20051;-64
2022/11/26 11:20:15;;;;;;;28.23;11.75;;;8.20;99.90;;;;;;4926111;29;20043;-63
2022/11/26 11:22:42;;;;;;;39.08;14.77;;;;;;;;;;4921769;29;20054;-63
2022/11/26 11:25:25;;;;;;;30.27;13.95;;;;;;;;;;4948539;28;20122;-66
2022/11/26 11:27:51;;;;;;;26.00;12.52;;;;;;;;;;4929829;29;20486;-66
2022/11/26 11:30:25;;;;;;;30.95;13.10;;;;;;;;;;4952627;29;20438;-66
2022/11/26 11:32:54;;;;;;;35.25;14.38;;;;;;;;;;4949538;29;20047;-66
2022/11/26 11:35:22;;;;;;;31.58;13.55;;;;;;;;;;4931135;29;20044;-63
2022/11/26 11:37:55;;;;;;;41.78;13.93;;;8.50;99.90;;;;;;4931144;29;20054;-61
2022/11/26 11:40:26;;;;;;;27.10;12.10;;;;;;;;;;4951755;29;20137;-62
2022/11/26 11:42:54;;;;;;;32.63;13.02;;;8.60;99.90;;;;;;4951653;29;20564;-62
2022/11/26 11:45:29;;;;;;;29.30;12.18;;;;;;;;;;4950676;28;20043;-62
2022/11/26 11:47:56;;;;;;;27.58;13.55;;;;;;;;;;4925052;29;20060;-63
2022/11/26 11:50:28;;;;;;;31.63;13.38;;;;;;;;;;4931026;29;20051;-62
2022/11/26 11:53:12;;;;;;;27.00;11.95;;;;;;;;;;4932058;29;20051;-64
2022/11/26 11:55:54;;;;;;;30.35;12.77;;;;;;;;;;4930832;29;20050;-65
2022/11/26 11:58:27;;;;;;;31.75;11.80;;;8.80;99.90;;;;;;4931698;29;20055;-65
2022/11/26 12:02:00;;;;;;;33.42;12.30;;;8.70;99.90;;;;;;4934322;29;20107;-64
2022/11/26 12:04:42;;;;;;;31.95;12.35;;;;;;;;;;4808320;29;20058;-63
2022/11/26 12:07:13;;;;;;;30.85;12.70;;;8.70;99.90;;;;;;4840680;29;20093;-63
2022/11/26 12:09:48;;;;;;;35.60;14.02;;;;;;;;;;4902545;29;20062;-63
2022/11/26 12:12:34;;;;;;;35.50;12.65;;;;;;;;;;4943520;29;20087;-65
2022/11/26 12:15:10;;;;;;;29.08;12.15;;;8.70;99.90;;;;;;4938907;28;20190;-64
2022/11/26 12:18:17;;;;;;;33.15;12.23;;;8.80;99.90;;;;;;4939662;29;20043;-64
2022/11/26 12:20:48;;;;;;;27.08;11.95;;;8.70;99.90;;;;;;4938512;29;20031;-65
2022/11/26 12:23:32;;;;;;;32.70;12.70;;;8.80;99.90;;;;;;4950825;29;20490;-64
2022/11/26 12:26:19;;;;;;;34.40;12.88;;;;;;;;;;4934410;29;20517;-65
2022/11/26 12:32:21;;;;;;;31.48;12.23;;;9.40;99.90;;;;;;4926833;29;20043;-66
2022/11/26 12:34:51;;;;;;;27.55;11.48;;;;;;;;;;4948668;29;20050;-65
2022/11/26 12:37:19;;;;;;;27.75;11.05;;;;;;;;;;4930857;29;20450;-63
2022/11/26 12:40:04;;;;;;;27.10;12.88;;;9.70;99.90;;;;;;4928162;29;20128;-63
2022/11/26 12:42:55;;;;;;;29.27;11.85;;;9.80;99.90;;;;;;4929793;29;20052;-63
2022/11/26 12:48:20;;;;;;;21.65;10.32;;;9.80;99.90;;;;;;5069488;28;20734;-62
2022/11/26 12:51:15;;;;;;;22.95;11.55;;;9.80;99.90;;;;;;5071463;28;20041;-61
2022/11/26 12:53:48;;;;;;;30.63;12.27;;;9.70;99.90;;;;;;5067117;28;20090;-61
2022/11/26 12:56:30;;;;;;;27.38;11.40;;;9.50;99.90;;;;;;5057835;28;20055;-60
2022/11/26 12:59:24;;;;;;;23.45;10.00;;;9.50;99.90;;;;;;5048914;28;20052;-60
2022/11/26 13:01:50;;;;;;;26.90;11.95;;;;;;;;;;5068063;28;20045;-60
2022/11/26 13:04:20;;;;;;;30.25;13.35;;;9.30;99.90;;;;;;5066712;28;20037;-63
2022/11/26 13:07:08;;;;;;;31.52;11.07;;;9.60;99.90;;;;;;5047962;28;20041;-63
2022/11/26 13:09:56;;;;;;;26.23;11.75;;;;;;;;;;5057078;28;20128;-64
2022/11/26 13:12:47;;;;;;;34.00;12.18;;;9.60;99.90;;;;;;5060457;28;20033;-64
2022/11/26 13:15:29;;;;;;;32.75;12.10;;;9.40;99.90;;;;;;5051985;28;20055;-63
2022/11/26 13:17:58;;;;;;;26.20;12.27;;;9.30;99.90;;;;;;5057153;28;20458;-62
2022/11/26 13:20:32;;;;;;;30.70;13.13;;;;;;;;;;5050207;28;20487;-61
2022/11/26 13:23:11;;;;;;;26.42;12.00;;;9.20;99.90;;;;;;5049423;28;20530;-61
2022/11/26 13:26:00;;;;;;;30.25;11.80;;;9.20;99.90;;;;;;5057611;28;20120;-64
2022/11/26 13:28:29;;;;;;;29.38;12.20;;;;;;;;;;5055420;28;20041;-63
2022/11/26 13:31:22;;;;;;;34.22;12.40;;;9.30;99.90;;;;;;5048233;28;20041;-63
2022/11/26 13:33:59;;;;;;;29.88;11.70;;;;;;;;;;5047418;28;20045;-62
2022/11/26 13:36:49;;;;;;;36.25;11.30;;;9.40;99.90;;;;;;5058279;28;20564;-61
2022/11/26 13:39:17;;;;;;;29.85;11.20;;;9.20;99.90;;;;;;5051885;28;20049;-61
2022/11/26 13:41:54;;;;;;;27.50;12.07;;;;;;;;;;5054292;28;20048;-62
2022/11/26 13:44:57;;;;;;;35.40;13.13;;;9.40;99.90;;;;;;5062674;28;20182;-63
2022/11/26 13:47:23;;;;;;;31.08;11.65;;;;;;;;;;5049118;28;20132;-64
2022/11/26 13:50:22;;;;;;;30.52;11.40;;;9.30;99.90;;;;;;5049754;28;20045;-65